sensor_id;sensor_type;location;lat;lon;timestamp;temperature;humidity
67598;DHT22;62026;39.230;9.122;2022-12-24T00:00:31;17.00;72.90
67598;DHT22;62026;39.230;9.122;2022-12-24T00:02:57;16.90;72.80
67598;DHT22;62026;39.230;9.122;2022-12-24T00:05:23;16.90;72.60
67598;DHT22;62026;39.230;9.122;2022-12-24T00:07:50;16.90;72.50
67598;DHT22;62026;39.230;9.122;2022-12-24T00:10:16;16.90;72.50
67598;DHT22;62026;39.230;9.122;2022-12-24T00:12:42;16.90;72.50
67598;DHT22;62026;39.230;9.122;2022-12-24T00:15:08;16.90;72.40
67598;DHT22;62026;39.230;9.122;2022-12-24T00:17:35;16.90;72.40
67598;DHT22;62026;39.230;9.122;2022-12-24T00:20:01;16.90;72.40
67598;DHT22;62026;39.230;9.122;2022-12-24T00:22:29;16.90;72.40
67598;DHT22;62026;39.230;9.122;2022-12-24T00:24:55;16.90;72.40
67598;DHT22;62026;39.230;9.122;2022-12-24T00:27:20;16.90;72.50
67598;DHT22;62026;39.230;9.122;2022-12-24T00:29:46;16.90;72.40
67598;DHT22;62026;39.230;9.122;2022-12-24T00:32:12;16.90;72.50
67598;DHT22;62026;39.230;9.122;2022-12-24T00:34:38;16.90;72.50
67598;DHT22;62026;39.230;9.122;2022-12-24T00:37:05;16.90;72.60
67598;DHT22;62026;39.230;9.122;2022-12-24T00:39:32;16.90;72.50
67598;DHT22;62026;39.230;9.122;2022-12-24T00:41:58;16.90;72.50
67598;DHT22;62026;39.230;9.122;2022-12-24T00:44:25;16.90;72.50
67598;DHT22;62026;39.230;9.122;2022-12-24T00:46:51;16.90;72.50
67598;DHT22;62026;39.230;9.122;2022-12-24T00:49:17;16.90;72.60
67598;DHT22;62026;39.230;9.122;2022-12-24T00:51:43;16.80;72.70
67598;DHT22;62026;39.230;9.122;2022-12-24T00:54:09;16.90;72.70
67598;DHT22;62026;39.230;9.122;2022-12-24T00:56:35;16.90;72.80
67598;DHT22;62026;39.230;9.122;2022-12-24T00:59:01;16.80;72.90
67598;DHT22;62026;39.230;9.122;2022-12-24T01:01:27;16.90;73.00
67598;DHT22;62026;39.230;9.122;2022-12-24T01:03:54;16.80;73.00
67598;DHT22;62026;39.230;9.122;2022-12-24T01:06:39;16.80;73.10
67598;DHT22;62026;39.230;9.122;2022-12-24T01:09:05;16.80;73.20
67598;DHT22;62026;39.230;9.122;2022-12-24T01:11:31;16.80;73.10
67598;DHT22;62026;39.230;9.122;2022-12-24T01:13:57;16.80;73.20
67598;DHT22;62026;39.230;9.122;2022-12-24T01:16:23;16.80;73.10
67598;DHT22;62026;39.230;9.122;2022-12-24T01:18:49;16.80;73.20
67598;DHT22;62026;39.230;9.122;2022-12-24T01:21:15;16.80;73.20
67598;DHT22;62026;39.230;9.122;2022-12-24T01:23:42;16.80;73.30
67598;DHT22;62026;39.230;9.122;2022-12-24T01:26:09;16.80;73.30
67598;DHT22;62026;39.230;9.122;2022-12-24T01:28:38;16.80;73.20
67598;DHT22;62026;39.230;9.122;2022-12-24T01:31:13;16.80;73.20
67598;DHT22;62026;39.230;9.122;2022-12-24T01:33:42;16.80;73.20
67598;DHT22;62026;39.230;9.122;2022-12-24T01:36:09;16.80;73.30
67598;DHT22;62026;39.230;9.122;2022-12-24T01:38:36;16.80;73.40
67598;DHT22;62026;39.230;9.122;2022-12-24T01:41:02;16.80;73.40
67598;DHT22;62026;39.230;9.122;2022-12-24T01:43:47;16.80;73.60
67598;DHT22;62026;39.230;9.122;2022-12-24T01:48:53;16.80;73.80
67598;DHT22;62026;39.230;9.122;2022-12-24T01:51:51;16.80;73.90
67598;DHT22;62026;39.230;9.122;2022-12-24T01:54:27;16.80;74.00
67598;DHT22;62026;39.230;9.122;2022-12-24T01:57:08;16.80;74.20
67598;DHT22;62026;39.230;9.122;2022-12-24T01:59:43;16.70;73.90
67598;DHT22;62026;39.230;9.122;2022-12-24T02:02:12;16.60;73.00
67598;DHT22;62026;39.230;9.122;2022-12-24T02:04:50;16.60;73.50
67598;DHT22;62026;39.230;9.122;2022-12-24T02:07:22;16.50;73.50
67598;DHT22;62026;39.230;9.122;2022-12-24T02:09:52;16.50;73.60
67598;DHT22;62026;39.230;9.122;2022-12-24T02:12:23;16.50;73.80
67598;DHT22;62026;39.230;9.122;2022-12-24T02:14:51;16.50;74.00
67598;DHT22;62026;39.230;9.122;2022-12-24T02:32:24;16.60;75.60
67598;DHT22;62026;39.230;9.122;2022-12-24T02:35:45;16.60;75.10
67598;DHT22;62026;39.230;9.122;2022-12-24T02:41:02;16.60;75.60
67598;DHT22;62026;39.230;9.122;2022-12-24T02:43:36;16.60;75.70
67598;DHT22;62026;39.230;9.122;2022-12-24T02:46:09;16.60;75.70
67598;DHT22;62026;39.230;9.122;2022-12-24T02:48:40;16.60;75.70
67598;DHT22;62026;39.230;9.122;2022-12-24T02:51:09;16.60;75.70
67598;DHT22;62026;39.230;9.122;2022-12-24T02:53:36;16.70;75.80
67598;DHT22;62026;39.230;9.122;2022-12-24T03:04:56;16.70;75.70
67598;DHT22;62026;39.230;9.122;2022-12-24T03:13:25;16.70;75.90
67598;DHT22;62026;39.230;9.122;2022-12-24T03:15:53;16.70;75.90
67598;DHT22;62026;39.230;9.122;2022-12-24T03:18:25;16.70;75.90
67598;DHT22;62026;39.230;9.122;2022-12-24T03:21:00;16.70;76.00
67598;DHT22;62026;39.230;9.122;2022-12-24T03:23:33;16.60;76.00
67598;DHT22;62026;39.230;9.122;2022-12-24T03:26:00;16.70;76.00
67598;DHT22;62026;39.230;9.122;2022-12-24T03:28:32;16.70;76.10
67598;DHT22;62026;39.230;9.122;2022-12-24T03:31:04;16.70;76.20
67598;DHT22;62026;39.230;9.122;2022-12-24T03:33:31;16.70;76.10
67598;DHT22;62026;39.230;9.122;2022-12-24T03:35:57;16.70;76.10
67598;DHT22;62026;39.230;9.122;2022-12-24T03:38:23;16.60;76.20
67598;DHT22;62026;39.230;9.122;2022-12-24T03:40:49;16.70;76.30
67598;DHT22;62026;39.230;9.122;2022-12-24T03:43:15;16.70;76.30
67598;DHT22;62026;39.230;9.122;2022-12-24T03:45:40;16.60;76.30
67598;DHT22;62026;39.230;9.122;2022-12-24T03:48:06;16.60;76.30
67598;DHT22;62026;39.230;9.122;2022-12-24T03:50:32;16.60;76.40
67598;DHT22;62026;39.230;9.122;2022-12-24T03:52:58;16.60;76.40
67598;DHT22;62026;39.230;9.122;2022-12-24T03:55:24;16.60;76.40
67598;DHT22;62026;39.230;9.122;2022-12-24T03:57:50;16.60;76.40
67598;DHT22;62026;39.230;9.122;2022-12-24T04:00:17;16.60;76.40
67598;DHT22;62026;39.230;9.122;2022-12-24T04:02:43;16.70;76.30
67598;DHT22;62026;39.230;9.122;2022-12-24T04:05:18;16.70;76.30
67598;DHT22;62026;39.230;9.122;2022-12-24T04:07:45;16.60;76.30
67598;DHT22;62026;39.230;9.122;2022-12-24T04:10:13;16.70;76.30
67598;DHT22;62026;39.230;9.122;2022-12-24T04:12:40;16.60;76.40
67598;DHT22;62026;39.230;9.122;2022-12-24T04:15:07;16.60;76.40
67598;DHT22;62026;39.230;9.122;2022-12-24T04:17:33;16.60;76.30
67598;DHT22;62026;39.230;9.122;2022-12-24T04:19:59;16.60;76.30
67598;DHT22;62026;39.230;9.122;2022-12-24T04:22:25;16.70;76.30
67598;DHT22;62026;39.230;9.122;2022-12-24T04:24:51;16.70;76.30
67598;DHT22;62026;39.230;9.122;2022-12-24T04:27:17;16.70;76.20
67598;DHT22;62026;39.230;9.122;2022-12-24T04:29:43;16.60;76.20
67598;DHT22;62026;39.230;9.122;2022-12-24T04:32:09;16.70;76.10
67598;DHT22;62026;39.230;9.122;2022-12-24T04:34:35;16.70;76.20
67598;DHT22;62026;39.230;9.122;2022-12-24T04:37:02;16.70;76.20
67598;DHT22;62026;39.230;9.122;2022-12-24T04:39:28;16.60;76.20
67598;DHT22;62026;39.230;9.122;2022-12-24T04:41:54;16.60;76.20
67598;DHT22;62026;39.230;9.122;2022-12-24T04:44:20;16.60;76.20
67598;DHT22;62026;39.230;9.122;2022-12-24T04:46:46;16.60;76.20
67598;DHT22;62026;39.230;9.122;2022-12-24T04:49:12;16.60;76.10
67598;DHT22;62026;39.230;9.122;2022-12-24T04:51:38;16.60;76.20
67598;DHT22;62026;39.230;9.122;2022-12-24T04:54:04;16.60;76.20
67598;DHT22;62026;39.230;9.122;2022-12-24T04:56:31;16.60;76.30
67598;DHT22;62026;39.230;9.122;2022-12-24T04:58:58;16.60;76.30
67598;DHT22;62026;39.230;9.122;2022-12-24T05:01:27;16.60;76.30
67598;DHT22;62026;39.230;9.122;2022-12-24T05:03:55;16.60;76.30
67598;DHT22;62026;39.230;9.122;2022-12-24T05:06:25;16.60;76.40
67598;DHT22;62026;39.230;9.122;2022-12-24T05:08:55;16.50;76.50
67598;DHT22;62026;39.230;9.122;2022-12-24T05:11:23;16.50;76.60
67598;DHT22;62026;39.230;9.122;2022-12-24T05:13:49;16.60;76.50
67598;DHT22;62026;39.230;9.122;2022-12-24T05:16:17;16.50;76.70
67598;DHT22;62026;39.230;9.122;2022-12-24T05:18:45;16.50;76.70
67598;DHT22;62026;39.230;9.122;2022-12-24T05:21:16;16.60;76.80
67598;DHT22;62026;39.230;9.122;2022-12-24T05:23:45;16.50;76.70
67598;DHT22;62026;39.230;9.122;2022-12-24T05:29:17;16.60;76.80
67598;DHT22;62026;39.230;9.122;2022-12-24T05:31:44;16.50;76.70
67598;DHT22;62026;39.230;9.122;2022-12-24T05:34:11;16.50;76.80
67598;DHT22;62026;39.230;9.122;2022-12-24T05:36:38;16.50;76.80
67598;DHT22;62026;39.230;9.122;2022-12-24T05:39:06;16.50;77.00
67598;DHT22;62026;39.230;9.122;2022-12-24T05:41:32;16.50;76.90
67598;DHT22;62026;39.230;9.122;2022-12-24T05:43:58;16.50;76.90
67598;DHT22;62026;39.230;9.122;2022-12-24T05:46:24;16.50;77.10
67598;DHT22;62026;39.230;9.122;2022-12-24T05:48:51;16.50;77.10
67598;DHT22;62026;39.230;9.122;2022-12-24T05:51:19;16.50;77.10
67598;DHT22;62026;39.230;9.122;2022-12-24T05:53:47;16.50;77.10
67598;DHT22;62026;39.230;9.122;2022-12-24T05:56:17;16.50;77.20
67598;DHT22;62026;39.230;9.122;2022-12-24T05:58:48;16.50;77.20
67598;DHT22;62026;39.230;9.122;2022-12-24T06:01:17;16.50;77.20
67598;DHT22;62026;39.230;9.122;2022-12-24T06:03:43;16.50;77.30
67598;DHT22;62026;39.230;9.122;2022-12-24T06:06:12;16.50;77.30
67598;DHT22;62026;39.230;9.122;2022-12-24T06:08:40;16.50;77.40
67598;DHT22;62026;39.230;9.122;2022-12-24T06:11:09;16.40;77.50
67598;DHT22;62026;39.230;9.122;2022-12-24T06:13:38;16.40;77.50
67598;DHT22;62026;39.230;9.122;2022-12-24T06:16:07;16.50;77.60
67598;DHT22;62026;39.230;9.122;2022-12-24T06:18:35;16.50;77.50
67598;DHT22;62026;39.230;9.122;2022-12-24T06:21:02;16.50;77.60
67598;DHT22;62026;39.230;9.122;2022-12-24T06:23:30;16.50;77.60
67598;DHT22;62026;39.230;9.122;2022-12-24T06:25:59;16.50;77.70
67598;DHT22;62026;39.230;9.122;2022-12-24T06:28:26;16.50;77.80
67598;DHT22;62026;39.230;9.122;2022-12-24T06:30:57;16.50;77.90
67598;DHT22;62026;39.230;9.122;2022-12-24T06:33:23;16.40;77.90
67598;DHT22;62026;39.230;9.122;2022-12-24T06:35:49;16.40;78.10
67598;DHT22;62026;39.230;9.122;2022-12-24T06:38:15;16.50;78.10
67598;DHT22;62026;39.230;9.122;2022-12-24T06:40:43;16.50;78.20
67598;DHT22;62026;39.230;9.122;2022-12-24T06:43:10;16.50;78.20
67598;DHT22;62026;39.230;9.122;2022-12-24T06:45:37;16.50;78.40
67598;DHT22;62026;39.230;9.122;2022-12-24T06:48:03;16.50;78.40
67598;DHT22;62026;39.230;9.122;2022-12-24T06:50:29;16.50;78.50
67598;DHT22;62026;39.230;9.122;2022-12-24T06:52:55;16.50;78.60
67598;DHT22;62026;39.230;9.122;2022-12-24T06:55:21;16.50;78.60
67598;DHT22;62026;39.230;9.122;2022-12-24T06:57:47;16.50;78.60
67598;DHT22;62026;39.230;9.122;2022-12-24T07:00:13;16.50;78.60
67598;DHT22;62026;39.230;9.122;2022-12-24T07:02:41;16.50;78.80
67598;DHT22;62026;39.230;9.122;2022-12-24T07:05:11;16.50;78.70
67598;DHT22;62026;39.230;9.122;2022-12-24T07:07:40;16.50;78.80
67598;DHT22;62026;39.230;9.122;2022-12-24T07:10:15;16.50;78.80
67598;DHT22;62026;39.230;9.122;2022-12-24T07:12:43;16.50;78.90
67598;DHT22;62026;39.230;9.122;2022-12-24T07:15:09;16.50;79.10
67598;DHT22;62026;39.230;9.122;2022-12-24T07:17:36;16.50;79.10
67598;DHT22;62026;39.230;9.122;2022-12-24T07:20:03;16.50;79.00
67598;DHT22;62026;39.230;9.122;2022-12-24T07:22:30;16.50;79.00
67598;DHT22;62026;39.230;9.122;2022-12-24T07:24:56;16.50;79.10
67598;DHT22;62026;39.230;9.122;2022-12-24T07:27:22;16.50;79.00
67598;DHT22;62026;39.230;9.122;2022-12-24T07:29:48;16.50;79.00
67598;DHT22;62026;39.230;9.122;2022-12-24T07:32:14;16.50;79.00
67598;DHT22;62026;39.230;9.122;2022-12-24T07:34:40;16.50;79.10
67598;DHT22;62026;39.230;9.122;2022-12-24T07:37:06;16.60;79.20
67598;DHT22;62026;39.230;9.122;2022-12-24T07:39:33;16.60;79.10
67598;DHT22;62026;39.230;9.122;2022-12-24T07:41:59;16.60;79.10
67598;DHT22;62026;39.230;9.122;2022-12-24T07:44:25;16.70;79.10
67598;DHT22;62026;39.230;9.122;2022-12-24T07:46:51;16.70;79.10
67598;DHT22;62026;39.230;9.122;2022-12-24T07:49:17;16.70;79.10
67598;DHT22;62026;39.230;9.122;2022-12-24T07:51:43;16.70;79.00
67598;DHT22;62026;39.230;9.122;2022-12-24T07:54:09;16.80;79.10
67598;DHT22;62026;39.230;9.122;2022-12-24T07:56:35;16.70;79.00
67598;DHT22;62026;39.230;9.122;2022-12-24T07:59:01;16.80;78.90
67598;DHT22;62026;39.230;9.122;2022-12-24T08:01:27;16.80;78.80
67598;DHT22;62026;39.230;9.122;2022-12-24T08:03:53;17.00;78.70
67598;DHT22;62026;39.230;9.122;2022-12-24T08:06:22;17.00;78.50
67598;DHT22;62026;39.230;9.122;2022-12-24T08:08:49;17.00;78.60
67598;DHT22;62026;39.230;9.122;2022-12-24T08:11:15;17.00;78.70
67598;DHT22;62026;39.230;9.122;2022-12-24T08:13:41;17.00;78.40
67598;DHT22;62026;39.230;9.122;2022-12-24T08:16:07;17.10;78.20
67598;DHT22;62026;39.230;9.122;2022-12-24T08:18:33;17.20;78.30
67598;DHT22;62026;39.230;9.122;2022-12-24T08:20:59;17.20;78.10
67598;DHT22;62026;39.230;9.122;2022-12-24T08:23:25;17.40;78.00
67598;DHT22;62026;39.230;9.122;2022-12-24T08:25:51;17.50;77.60
67598;DHT22;62026;39.230;9.122;2022-12-24T08:28:19;17.50;77.50
67598;DHT22;62026;39.230;9.122;2022-12-24T08:30:47;17.50;77.50
67598;DHT22;62026;39.230;9.122;2022-12-24T08:33:14;17.70;77.20
67598;DHT22;62026;39.230;9.122;2022-12-24T08:35:49;17.80;76.80
67598;DHT22;62026;39.230;9.122;2022-12-24T08:38:16;17.80;76.60
67598;DHT22;62026;39.230;9.122;2022-12-24T08:40:43;18.00;76.30
67598;DHT22;62026;39.230;9.122;2022-12-24T08:43:13;18.00;75.90
67598;DHT22;62026;39.230;9.122;2022-12-24T08:45:40;18.10;75.40
67598;DHT22;62026;39.230;9.122;2022-12-24T08:48:07;18.20;75.20
67598;DHT22;62026;39.230;9.122;2022-12-24T08:50:34;18.20;74.90
67598;DHT22;62026;39.230;9.122;2022-12-24T08:53:02;18.20;74.90
67598;DHT22;62026;39.230;9.122;2022-12-24T08:55:28;18.20;74.80
67598;DHT22;62026;39.230;9.122;2022-12-24T08:57:54;18.20;74.90
67598;DHT22;62026;39.230;9.122;2022-12-24T09:00:20;18.10;75.20
67598;DHT22;62026;39.230;9.122;2022-12-24T09:02:46;18.10;75.20
67598;DHT22;62026;39.230;9.122;2022-12-24T09:05:12;18.10;75.40
67598;DHT22;62026;39.230;9.122;2022-12-24T09:07:38;18.00;75.40
67598;DHT22;62026;39.230;9.122;2022-12-24T09:10:05;18.00;75.50
67598;DHT22;62026;39.230;9.122;2022-12-24T09:12:31;18.00;75.40
67598;DHT22;62026;39.230;9.122;2022-12-24T09:14:57;18.00;75.60
67598;DHT22;62026;39.230;9.122;2022-12-24T09:17:23;17.90;75.80
67598;DHT22;62026;39.230;9.122;2022-12-24T09:19:49;17.80;76.00
67598;DHT22;62026;39.230;9.122;2022-12-24T09:22:15;17.80;76.10
67598;DHT22;62026;39.230;9.122;2022-12-24T09:24:41;17.70;76.20
67598;DHT22;62026;39.230;9.122;2022-12-24T09:27:07;17.70;76.20
67598;DHT22;62026;39.230;9.122;2022-12-24T09:29:33;17.70;76.20
67598;DHT22;62026;39.230;9.122;2022-12-24T09:32:00;17.70;76.10
67598;DHT22;62026;39.230;9.122;2022-12-24T09:34:26;17.70;76.10
67598;DHT22;62026;39.230;9.122;2022-12-24T09:36:52;17.70;76.00
67598;DHT22;62026;39.230;9.122;2022-12-24T09:39:19;17.70;76.00
67598;DHT22;62026;39.230;9.122;2022-12-24T09:44:59;17.70;75.80
67598;DHT22;62026;39.230;9.122;2022-12-24T09:47:36;17.70;75.90
67598;DHT22;62026;39.230;9.122;2022-12-24T09:50:50;17.70;75.80
67598;DHT22;62026;39.230;9.122;2022-12-24T09:53:39;17.70;75.70
67598;DHT22;62026;39.230;9.122;2022-12-24T09:56:20;17.70;75.50
67598;DHT22;62026;39.230;9.122;2022-12-24T09:58:55;17.80;75.40
67598;DHT22;62026;39.230;9.122;2022-12-24T10:01:32;17.80;75.20
67598;DHT22;62026;39.230;9.122;2022-12-24T10:04:06;17.90;75.10
67598;DHT22;62026;39.230;9.122;2022-12-24T10:20:43;18.10;74.20
67598;DHT22;62026;39.230;9.122;2022-12-24T10:23:45;18.20;73.80
67598;DHT22;62026;39.230;9.122;2022-12-24T10:26:31;18.30;73.50
67598;DHT22;62026;39.230;9.122;2022-12-24T10:29:28;18.30;73.50
67598;DHT22;62026;39.230;9.122;2022-12-24T10:34:43;18.20;73.30
67598;DHT22;62026;39.230;9.122;2022-12-24T10:37:16;18.20;73.40
67598;DHT22;62026;39.230;9.122;2022-12-24T10:39:48;18.20;73.30
67598;DHT22;62026;39.230;9.122;2022-12-24T10:42:14;18.20;73.40
67598;DHT22;62026;39.230;9.122;2022-12-24T10:44:46;18.20;73.40
67598;DHT22;62026;39.230;9.122;2022-12-24T10:47:20;18.30;73.50
67598;DHT22;62026;39.230;9.122;2022-12-24T10:50:15;18.20;73.30
67598;DHT22;62026;39.230;9.122;2022-12-24T10:52:47;18.20;73.30
67598;DHT22;62026;39.230;9.122;2022-12-24T10:57:46;18.20;73.40
67598;DHT22;62026;39.230;9.122;2022-12-24T11:00:26;18.20;73.30
67598;DHT22;62026;39.230;9.122;2022-12-24T11:05:38;18.20;73.40
67598;DHT22;62026;39.230;9.122;2022-12-24T11:08:15;18.20;73.50
67598;DHT22;62026;39.230;9.122;2022-12-24T11:11:08;18.20;73.40
67598;DHT22;62026;39.230;9.122;2022-12-24T11:13:44;18.20;73.40
67598;DHT22;62026;39.230;9.122;2022-12-24T11:16:32;18.30;73.30
67598;DHT22;62026;39.230;9.122;2022-12-24T11:19:15;18.30;73.30
67598;DHT22;62026;39.230;9.122;2022-12-24T11:21:44;18.30;73.10
67598;DHT22;62026;39.230;9.122;2022-12-24T11:24:26;18.40;73.20
67598;DHT22;62026;39.230;9.122;2022-12-24T11:27:48;18.40;73.00
67598;DHT22;62026;39.230;9.122;2022-12-24T11:30:29;18.40;73.10
67598;DHT22;62026;39.230;9.122;2022-12-24T11:35:28;18.50;72.90
67598;DHT22;62026;39.230;9.122;2022-12-24T11:40:37;18.50;73.00
67598;DHT22;62026;39.230;9.122;2022-12-24T11:43:10;18.50;73.00
67598;DHT22;62026;39.230;9.122;2022-12-24T11:48:31;18.50;72.80
67598;DHT22;62026;39.230;9.122;2022-12-24T11:51:04;18.60;72.90
67598;DHT22;62026;39.230;9.122;2022-12-24T11:53:57;18.60;72.70
67598;DHT22;62026;39.230;9.122;2022-12-24T11:56:51;18.60;72.70
67598;DHT22;62026;39.230;9.122;2022-12-24T11:59:39;18.60;72.70
67598;DHT22;62026;39.230;9.122;2022-12-24T12:05:17;18.60;72.80
67598;DHT22;62026;39.230;9.122;2022-12-24T12:07:49;18.60;73.00
67598;DHT22;62026;39.230;9.122;2022-12-24T12:10:29;18.60;72.80
67598;DHT22;62026;39.230;9.122;2022-12-24T12:13:09;18.50;72.80
67598;DHT22;62026;39.230;9.122;2022-12-24T12:15:50;18.60;72.70
67598;DHT22;62026;39.230;9.122;2022-12-24T12:18:21;18.60;72.50
67598;DHT22;62026;39.230;9.122;2022-12-24T12:20:54;18.60;72.60
67598;DHT22;62026;39.230;9.122;2022-12-24T12:23:29;18.60;72.50
67598;DHT22;62026;39.230;9.122;2022-12-24T12:26:14;18.60;72.70
67598;DHT22;62026;39.230;9.122;2022-12-24T12:28:48;18.60;72.60
67598;DHT22;62026;39.230;9.122;2022-12-24T12:31:33;18.50;72.60
67598;DHT22;62026;39.230;9.122;2022-12-24T12:34:11;18.50;72.40
67598;DHT22;62026;39.230;9.122;2022-12-24T12:36:50;18.50;72.50
67598;DHT22;62026;39.230;9.122;2022-12-24T12:39:22;18.50;72.60
67598;DHT22;62026;39.230;9.122;2022-12-24T12:47:55;18.50;72.30
67598;DHT22;62026;39.230;9.122;2022-12-24T12:51:14;18.50;72.50
67598;DHT22;62026;39.230;9.122;2022-12-24T12:54:12;18.50;72.60
67598;DHT22;62026;39.230;9.122;2022-12-24T12:56:48;18.50;72.60
67598;DHT22;62026;39.230;9.122;2022-12-24T12:59:33;18.50;72.60
67598;DHT22;62026;39.230;9.122;2022-12-24T13:16:24;18.50;72.30
67598;DHT22;62026;39.230;9.122;2022-12-24T13:19:27;18.50;72.20
67598;DHT22;62026;39.230;9.122;2022-12-24T13:22:15;18.50;72.20
67598;DHT22;62026;39.230;9.122;2022-12-24T13:25:17;18.50;72.20
67598;DHT22;62026;39.230;9.122;2022-12-24T13:27:45;18.50;72.20
67598;DHT22;62026;39.230;9.122;2022-12-24T13:30:31;18.50;72.20
67598;DHT22;62026;39.230;9.122;2022-12-24T13:32:57;18.50;72.20
67598;DHT22;62026;39.230;9.122;2022-12-24T13:37:50;18.50;72.00
67598;DHT22;62026;39.230;9.122;2022-12-24T13:40:24;18.50;71.80
67598;DHT22;62026;39.230;9.122;2022-12-24T13:48:17;18.50;72.10
67598;DHT22;62026;39.230;9.122;2022-12-24T13:50:53;18.50;72.20
67598;DHT22;62026;39.230;9.122;2022-12-24T13:53:26;18.50;72.20
67598;DHT22;62026;39.230;9.122;2022-12-24T13:56:23;18.40;71.10
67598;DHT22;62026;39.230;9.122;2022-12-24T13:59:22;18.40;71.10
67598;DHT22;62026;39.230;9.122;2022-12-24T14:01:58;18.30;71.50
67598;DHT22;62026;39.230;9.122;2022-12-24T14:04:27;18.30;71.60
67598;DHT22;62026;39.230;9.122;2022-12-24T14:06:59;18.20;71.60
67598;DHT22;62026;39.230;9.122;2022-12-24T14:09:28;18.20;71.70
67598;DHT22;62026;39.230;9.122;2022-12-24T14:14:31;18.20;72.10
67598;DHT22;62026;39.230;9.122;2022-12-24T14:17:04;18.20;72.30
67598;DHT22;62026;39.230;9.122;2022-12-24T14:19:45;18.10;72.10
67598;DHT22;62026;39.230;9.122;2022-12-24T14:22:27;18.10;72.30
67598;DHT22;62026;39.230;9.122;2022-12-24T14:25:18;18.10;72.60
67598;DHT22;62026;39.230;9.122;2022-12-24T14:28:03;18.10;72.60
67598;DHT22;62026;39.230;9.122;2022-12-24T14:30:31;18.10;72.60
67598;DHT22;62026;39.230;9.122;2022-12-24T14:32:57;18.00;72.60
67598;DHT22;62026;39.230;9.122;2022-12-24T14:35:27;18.00;72.70
67598;DHT22;62026;39.230;9.122;2022-12-24T14:41:08;18.00;72.70
67598;DHT22;62026;39.230;9.122;2022-12-24T14:46:56;18.00;72.80
67598;DHT22;62026;39.230;9.122;2022-12-24T14:52:33;17.90;72.90
67598;DHT22;62026;39.230;9.122;2022-12-24T14:55:41;17.90;72.90
67598;DHT22;62026;39.230;9.122;2022-12-24T14:58:27;17.90;73.00
67598;DHT22;62026;39.230;9.122;2022-12-24T15:01:18;17.90;73.00
67598;DHT22;62026;39.230;9.122;2022-12-24T15:06:55;17.90;73.00
67598;DHT22;62026;39.230;9.122;2022-12-24T15:09:30;17.80;72.90
67598;DHT22;62026;39.230;9.122;2022-12-24T15:12:00;17.80;72.90
67598;DHT22;62026;39.230;9.122;2022-12-24T15:14:30;17.80;72.80
67598;DHT22;62026;39.230;9.122;2022-12-24T15:17:08;17.80;73.30
67598;DHT22;62026;39.230;9.122;2022-12-24T15:19:39;17.90;73.40
67598;DHT22;62026;39.230;9.122;2022-12-24T15:22:11;18.00;73.40
67598;DHT22;62026;39.230;9.122;2022-12-24T15:24:55;18.00;73.30
67598;DHT22;62026;39.230;9.122;2022-12-24T15:27:25;18.00;73.30
67598;DHT22;62026;39.230;9.122;2022-12-24T15:29:57;18.00;73.20
67598;DHT22;62026;39.230;9.122;2022-12-24T15:32:23;18.00;73.30
67598;DHT22;62026;39.230;9.122;2022-12-24T15:34:52;18.00;73.30
67598;DHT22;62026;39.230;9.122;2022-12-24T15:40:02;18.00;73.40
67598;DHT22;62026;39.230;9.122;2022-12-24T15:42:34;18.00;73.30
67598;DHT22;62026;39.230;9.122;2022-12-24T15:47:43;18.00;73.40
67598;DHT22;62026;39.230;9.122;2022-12-24T15:50:34;18.00;73.40
67598;DHT22;62026;39.230;9.122;2022-12-24T15:53:04;18.00;73.40
67598;DHT22;62026;39.230;9.122;2022-12-24T15:55:46;18.10;73.40
67598;DHT22;62026;39.230;9.122;2022-12-24T15:58:39;18.10;73.30
67598;DHT22;62026;39.230;9.122;2022-12-24T16:03:58;18.00;73.20
67598;DHT22;62026;39.230;9.122;2022-12-24T16:06:25;18.00;73.20
67598;DHT22;62026;39.230;9.122;2022-12-24T16:08:53;18.10;73.10
67598;DHT22;62026;39.230;9.122;2022-12-24T16:11:25;18.00;73.10
67598;DHT22;62026;39.230;9.122;2022-12-24T16:14:13;18.00;73.20
67598;DHT22;62026;39.230;9.122;2022-12-24T16:16:47;18.00;73.30
67598;DHT22;62026;39.230;9.122;2022-12-24T16:19:19;18.00;73.20
67598;DHT22;62026;39.230;9.122;2022-12-24T16:21:53;18.00;73.20
67598;DHT22;62026;39.230;9.122;2022-12-24T16:24:34;18.00;73.30
67598;DHT22;62026;39.230;9.122;2022-12-24T16:27:00;18.00;73.20
67598;DHT22;62026;39.230;9.122;2022-12-24T16:29:26;18.00;73.30
67598;DHT22;62026;39.230;9.122;2022-12-24T16:31:54;18.00;73.20
67598;DHT22;62026;39.230;9.122;2022-12-24T16:34:27;18.00;73.20
67598;DHT22;62026;39.230;9.122;2022-12-24T16:36:56;18.00;73.10
67598;DHT22;62026;39.230;9.122;2022-12-24T16:39:31;18.00;73.10
67598;DHT22;62026;39.230;9.122;2022-12-24T16:42:01;18.00;73.00
67598;DHT22;62026;39.230;9.122;2022-12-24T16:44:47;17.90;73.00
67598;DHT22;62026;39.230;9.122;2022-12-24T16:47:24;17.90;73.10
67598;DHT22;62026;39.230;9.122;2022-12-24T16:50:00;17.90;73.10
67598;DHT22;62026;39.230;9.122;2022-12-24T16:52:30;17.90;73.10
67598;DHT22;62026;39.230;9.122;2022-12-24T16:54:59;17.90;73.20
67598;DHT22;62026;39.230;9.122;2022-12-24T16:57:26;17.90;73.30
67598;DHT22;62026;39.230;9.122;2022-12-24T16:59:53;17.90;73.10
67598;DHT22;62026;39.230;9.122;2022-12-24T17:02:21;17.90;73.00
67598;DHT22;62026;39.230;9.122;2022-12-24T17:04:48;17.90;73.10
67598;DHT22;62026;39.230;9.122;2022-12-24T17:07:16;17.90;73.10
67598;DHT22;62026;39.230;9.122;2022-12-24T17:09:43;17.80;73.20
67598;DHT22;62026;39.230;9.122;2022-12-24T17:12:10;17.80;73.20
67598;DHT22;62026;39.230;9.122;2022-12-24T17:14:40;17.80;73.20
67598;DHT22;62026;39.230;9.122;2022-12-24T17:17:11;17.80;73.30
67598;DHT22;62026;39.230;9.122;2022-12-24T17:19:44;17.80;73.40
67598;DHT22;62026;39.230;9.122;2022-12-24T17:22:10;17.80;73.50
67598;DHT22;62026;39.230;9.122;2022-12-24T17:24:36;17.80;73.30
67598;DHT22;62026;39.230;9.122;2022-12-24T17:27:03;17.80;73.30
67598;DHT22;62026;39.230;9.122;2022-12-24T17:29:29;17.80;73.30
67598;DHT22;62026;39.230;9.122;2022-12-24T17:31:55;17.80;73.30
67598;DHT22;62026;39.230;9.122;2022-12-24T17:34:20;17.80;73.30
67598;DHT22;62026;39.230;9.122;2022-12-24T17:36:46;17.70;73.40
67598;DHT22;62026;39.230;9.122;2022-12-24T17:39:12;17.70;73.30
67598;DHT22;62026;39.230;9.122;2022-12-24T17:41:38;17.70;73.40
67598;DHT22;62026;39.230;9.122;2022-12-24T17:44:04;17.70;73.30
67598;DHT22;62026;39.230;9.122;2022-12-24T17:46:33;17.70;73.30
67598;DHT22;62026;39.230;9.122;2022-12-24T17:48:59;17.70;73.20
67598;DHT22;62026;39.230;9.122;2022-12-24T17:51:25;17.70;73.20
67598;DHT22;62026;39.230;9.122;2022-12-24T17:53:53;17.70;73.20
67598;DHT22;62026;39.230;9.122;2022-12-24T17:56:19;17.70;73.20
67598;DHT22;62026;39.230;9.122;2022-12-24T17:58:45;17.70;73.10
67598;DHT22;62026;39.230;9.122;2022-12-24T18:01:14;17.70;73.20